»·PEaware :: N448RA KVBG-KBFL

N448RA :: KVBG-KBFL

FLIGHT INFORMATION

Flight Status: Arrived
Operator: Privately registered:
United States
More flights under this callsign
Pilot: Scott M. (16181)
Aircraft: Unknown
(KODI)
More flights by this aircraft type
Origin: KVBG Vandenberg AFB
United States
Destination: KBFL Meadows
United States
More flights between these airports :: More routes between these airports
Route:
File this flight plan on PilotEdge
Remarks:
Altitude:
(Current/Filed)
7,500ft
Speed:
(Current/Filed)
125kts
Departed: 06-Oct-17 05:04 PM
Arrived: 06-Oct-17 05:53 PM
Distance/Time
Traveled:
86nm/0:48
Distance/Time
To Go:
Arrived

Flight Plot

Page will automatically refresh every two minutes.

Flight plan parsing failed; only flown route is shown


Map Options




Map Legend


Flown Route
Filed Route
Departure Airport
Arrival Airport
Navaid (VOR, NDB)
Fix

Horizontal Profiles

Position Reports

Time Latitude Longitude Heading Altitude Ground
Speed
06-Oct-17 17:01 34.731413 -120.569228 226 374ft 0kts
06-Oct-17 17:02 34.731413 -120.569228 226 374ft 0kts
06-Oct-17 17:03 34.731413 -120.569228 226 373ft 0kts
06-Oct-17 17:04 34.730801 -120.569417 209 373ft 15kts
06-Oct-17 17:05 34.728593 -120.568197 134 373ft 20kts
06-Oct-17 17:06 34.724204 -120.565496 202 373ft 26kts
06-Oct-17 17:07 34.723111 -120.566568 235 373ft 0kts
06-Oct-17 17:08 34.733535 -120.579978 318 781ft 118kts
06-Oct-17 17:09 34.753986 -120.590617 54 1841ft 119kts
06-Oct-17 17:10 34.759570 -120.570889 88 2297ft 130kts
06-Oct-17 17:11 34.759866 -120.543748 81 2841ft 131kts
06-Oct-17 17:12 34.764690 -120.516448 70 3433ft 129kts
06-Oct-17 17:13 34.773049 -120.489898 64 4066ft 132kts
06-Oct-17 17:14 34.782950 -120.464593 61 4925ft 125kts
06-Oct-17 17:15 34.793688 -120.439683 60 5899ft 126kts
06-Oct-17 17:16 34.804626 -120.415571 58 6841ft 128kts
06-Oct-17 17:17 34.815303 -120.392472 58 7503ft 131kts
06-Oct-17 17:18 34.826541 -120.368422 59 7507ft 145kts
06-Oct-17 17:19 34.837733 -120.344742 59 7496ft 141kts
06-Oct-17 17:20 34.844919 -120.329181 56 7500ft 142kts
06-Oct-17 17:21 34.860275 -120.296716 56 7502ft 144kts
06-Oct-17 17:22 34.878542 -120.258051 57 7502ft 144kts
06-Oct-17 17:23 34.896795 -120.219312 57 7502ft 144kts
06-Oct-17 17:24 34.915460 -120.179634 57 7500ft 144kts
06-Oct-17 17:25 34.934234 -120.139674 57 7499ft 145kts
06-Oct-17 17:26 34.952870 -120.099960 57 7497ft 145kts
06-Oct-17 17:27 34.972075 -120.058986 57 7496ft 145kts
06-Oct-17 17:28 34.991287 -120.017948 57 7494ft 145kts
06-Oct-17 17:29 35.010272 -119.977310 57 8241ft 144kts
06-Oct-17 17:30 35.029699 -119.935728 57 9068ft 148kts
06-Oct-17 17:31 35.049380 -119.893563 57 9494ft 151kts
06-Oct-17 17:32 35.068829 -119.851814 57 9492ft 143kts
06-Oct-17 17:33 35.087848 -119.810963 57 9495ft 143kts
06-Oct-17 17:34 35.105023 -119.774021 57 9339ft 143kts
06-Oct-17 17:35 35.123510 -119.734255 57 8608ft 143kts
06-Oct-17 17:36 35.142051 -119.694293 57 7877ft 143kts
06-Oct-17 17:37 35.160733 -119.653969 57 7140ft 143kts
06-Oct-17 17:38 35.179481 -119.613452 56 6400ft 143kts
06-Oct-17 17:39 35.198397 -119.572520 56 5653ft 143kts
06-Oct-17 17:40 35.216090 -119.534127 56 5518ft 133kts
06-Oct-17 17:41 35.233384 -119.496629 56 5503ft 130kts
06-Oct-17 17:42 35.250519 -119.459503 56 5001ft 134kts
06-Oct-17 17:43 35.268190 -119.421121 56 4262ft 130kts
06-Oct-17 17:44 35.284781 -119.385053 56 3552ft 128kts
06-Oct-17 17:45 35.300342 -119.351116 55 3510ft 119kts
06-Oct-17 17:46 35.314620 -119.319983 56 3501ft 119kts
06-Oct-17 17:47 35.330013 -119.286379 56 3502ft 118kts
06-Oct-17 17:48 35.345465 -119.252630 56 3502ft 118kts
06-Oct-17 17:49 35.360442 -119.219567 60 3487ft 118kts
06-Oct-17 17:50 35.367657 -119.183815 75 3098ft 120kts
06-Oct-17 17:51 35.372044 -119.147871 79 2608ft 116kts
06-Oct-17 17:52 35.375495 -119.112696 77 2119ft 115kts
06-Oct-17 17:53 35.382832 -119.079966 62 1733ft 101kts
06-Oct-17 17:54 35.393895 -119.052295 54 1260ft 94kts
06-Oct-17 17:55 35.406978 -119.027496 39 1262ft 83kts
06-Oct-17 17:56 35.421335 -119.040698 311 823ft 78kts
06-Oct-17 17:57 35.435004 -119.057636 318 510ft 24kts
06-Oct-17 17:58 35.436301 -119.057789 43 510ft 0kts
06-Oct-17 17:59 35.436334 -119.057373 96 510ft 12kts
06-Oct-17 18:00 35.431750 -119.051447 134 510ft 30kts
06-Oct-17 18:01 35.431480 -119.049383 136 510ft 0kts

Navigation Log

Ident Type
Flight plan parsing failed, navigation log unavailable